Time;durP1;ratioP1;P1;durP2;ratioP2;P2;SDS_P1;SDS_P2;PMS_P1;PMS_P2;Temp;Humidity;BMP_temperature;BMP_pressure;BME280_temperature;BME280_humidity;BME280_pressure;Samples;Min_cycle;Max_cycle;Signal;HPM_P1;HPM_P2
2022/06/18 00:01:40;;;;;;;7.40;4.75;;;;;;;;;;5033177;28;20057;-78
2022/06/18 00:04:08;;;;;;;5.88;4.68;;;;;;;;;;5015190;28;20041;-78
2022/06/18 00:06:54;;;;;;;5.25;4.75;;;;;;;;;;5015281;28;20041;-79
2022/06/18 00:09:22;;;;;;;7.93;4.57;;;;;;;;;;5019394;28;20037;-79
2022/06/18 00:14:33;;;;;;;6.72;4.43;;;;;;;;;;5033169;28;20070;-78
2022/06/18 00:17:00;;;;;;;7.70;4.75;;;;;;;;;;5032830;28;20061;-79
2022/06/18 00:19:26;;;;;;;6.50;4.30;;;;;;;;;;5032960;28;20032;-78
2022/06/18 00:21:52;;;;;;;6.15;4.88;;;;;;;;;;5032871;28;20460;-77
2022/06/18 00:24:19;;;;;;;7.32;4.25;;;;;;;;;;5014743;28;20037;-78
2022/06/18 00:26:46;;;;;;;10.48;4.88;;;;;;;;;;5032792;28;20032;-77
2022/06/18 00:29:13;;;;;;;8.35;4.70;;;;;;;;;;5032764;28;20080;-77
2022/06/18 00:31:40;;;;;;;5.43;4.53;;;;;;;;;;5032812;28;20101;-77
2022/06/18 00:34:06;;;;;;;6.55;4.55;;;;;;;;;;5033382;28;20415;-77
2022/06/18 00:36:32;;;;;;;9.63;5.15;;;;;;;;;;5019166;28;20022;-77
2022/06/18 00:38:58;;;;;;;7.65;4.93;;;;;;;;;;5036646;28;20399;-77
2022/06/18 00:41:26;;;;;;;5.30;4.60;;;;;;;;;;5036574;28;20468;-77
2022/06/18 00:43:52;;;;;;;9.13;4.80;;;;;;;;;;5036501;28;20064;-73
2022/06/18 00:46:36;;;;;;;7.95;4.53;;;;;;;;;;5036581;28;20017;-75
2022/06/18 00:49:07;;;;;;;5.75;4.18;;;;;;;;;;5036583;28;20033;-77
2022/06/18 00:51:39;;;;;;;6.97;4.47;;;;;;;;;;5036406;28;20049;-78
2022/06/18 00:54:30;;;;;;;6.70;4.95;;;;;;;;;;5036436;28;20383;-78
2022/06/18 00:56:56;;;;;;;6.63;4.47;;;;;;;;;;4956027;28;20075;-78
2022/06/18 00:59:48;;;;;;;11.40;4.85;;;;;;;;;;4956004;28;20078;-78
2022/06/18 01:02:18;;;;;;;7.85;4.75;;;;;;;;;;4952799;29;20067;-77
2022/06/18 01:04:44;;;;;;;5.95;4.60;;;;;;;;;;4955706;29;20062;-76
2022/06/18 01:07:16;;;;;;;6.65;4.63;;;;;;;;;;4956034;28;20106;-78
2022/06/18 01:09:43;;;;;;;6.38;5.18;;;;;;;;;;4955844;29;20062;-77
2022/06/18 01:12:10;;;;;;;7.85;4.78;;;;;;;;;;4955666;29;20405;-78
2022/06/18 01:14:36;;;;;;;5.70;5.10;;;;;;;;;;4955757;29;20104;-78
2022/06/18 01:17:04;;;;;;;8.82;5.57;;;;;;;;;;4955595;29;20030;-77
2022/06/18 01:19:49;;;;;;;8.50;5.93;;;;;;;;;;4955693;28;20047;-76
2022/06/18 01:22:34;;;;;;;7.32;5.70;;;;;;;;;;4955549;29;20030;-78
2022/06/18 01:25:00;;;;;;;9.80;7.55;;;;;;;;;;4955643;29;20031;-79
2022/06/18 01:27:27;;;;;;;11.30;7.18;;;;;;;;;;4955444;29;20046;-78
2022/06/18 01:29:53;;;;;;;8.82;6.28;;;;;;;;;;4955505;29;20035;-78
2022/06/18 01:32:20;;;;;;;11.80;6.03;;;;;;;;;;4955375;28;20024;-78
2022/06/18 01:34:46;;;;;;;9.23;5.80;;;;;;;;;;5025989;28;20091;-78
2022/06/18 01:37:13;;;;;;;11.73;6.22;;;;;;;;;;5035374;28;20025;-78
2022/06/18 01:39:41;;;;;;;7.07;4.63;;;;;;;;;;5035464;28;20468;-78
2022/06/18 01:42:10;;;;;;;13.68;5.78;;;;;;;;;;5035468;28;20431;-78
2022/06/18 01:44:45;;;;;;;9.38;5.10;;;;;;;;;;5035302;28;20032;-78
2022/06/18 01:47:14;;;;;;;7.55;4.30;;;;;;;;;;5034174;28;20103;-79
2022/06/18 01:49:42;;;;;;;7.53;4.65;;;;;;;;;;5017409;28;20025;-78
2022/06/18 01:52:09;;;;;;;7.15;4.82;;;;;;;;;;5017079;28;20132;-78
2022/06/18 01:54:39;;;;;;;5.97;4.65;;;;;;;;;;5035205;28;20480;-78
2022/06/18 01:57:10;;;;;;;7.45;4.88;;;;;;;;;;5035111;28;20037;-78
2022/06/18 01:59:39;;;;;;;5.85;4.70;;;;;;;;;;5035303;28;20025;-74
2022/06/18 02:02:05;;;;;;;7.53;4.30;;;;;;;;;;5035055;28;20463;-78
2022/06/18 02:04:33;;;;;;;6.80;4.90;;;;;;;;;;5034877;28;20442;-78
2022/06/18 02:06:59;;;;;;;8.55;5.43;;;;;;;;;;5034971;28;20088;-78
2022/06/18 02:09:54;;;;;;;6.15;5.00;;;;;;;;;;5035020;28;20025;-78
2022/06/18 02:12:25;;;;;;;9.10;6.10;;;;;;;;;;4954731;29;20035;-78
2022/06/18 02:14:53;;;;;;;9.82;6.90;;;;;;;;;;4954621;29;20027;-78
2022/06/18 02:17:21;;;;;;;7.95;5.60;;;;;;;;;;4954535;29;20075;-78
2022/06/18 02:19:52;;;;;;;7.55;5.00;;;;;;;;;;4954774;29;20106;-77
2022/06/18 02:22:18;;;;;;;;;;;;;;;;;;4954815;29;20525;-78
2022/06/18 02:24:45;;;;;;;7.13;4.75;;;;;;;;;;4954509;29;20001;-78
2022/06/18 02:27:13;;;;;;;6.20;4.50;;;;;;;;;;4954298;29;20035;-78
2022/06/18 02:29:39;;;;;;;5.88;4.43;;;;;;;;;;4954526;28;20422;-78
2022/06/18 02:32:07;;;;;;;5.70;4.50;;;;;;;;;;4954370;29;20038;-76
2022/06/18 02:34:33;;;;;;;8.63;4.57;;;;;;;;;;4954060;28;20474;-78
2022/06/18 02:37:00;;;;;;;6.88;4.65;;;;;;;;;;4954117;29;20047;-78
2022/06/18 02:39:33;;;;;;;10.27;5.00;;;;;;;;;;4954275;29;20458;-77
2022/06/18 02:42:04;;;;;;;7.28;4.30;;;;;;;;;;4954092;29;20031;-78
2022/06/18 02:44:30;;;;;;;4.80;4.28;;;;;;;;;;4954061;28;20063;-77
2022/06/18 02:46:57;;;;;;;7.10;4.53;;;;;;;;;;4954168;29;20459;-76
2022/06/18 02:49:23;;;;;;;8.05;4.47;;;;;;;;;;5017305;28;20048;-78
2022/06/18 02:51:49;;;;;;;7.82;5.45;;;;;;;;;;5034023;28;20492;-78
2022/06/18 02:54:17;;;;;;;6.93;4.80;;;;;;;;;;5034082;28;20071;-77
2022/06/18 02:56:43;;;;;;;7.15;4.30;;;;;;;;;;5033748;28;20397;-78
2022/06/18 02:59:09;;;;;;;9.10;4.72;;;;;;;;;;5034044;28;20017;-78
2022/06/18 03:01:35;;;;;;;6.03;4.20;;;;;;;;;;5034089;28;20080;-78
2022/06/18 03:04:03;;;;;;;5.90;4.45;;;;;;;;;;5033598;28;20053;-78
2022/06/18 03:06:30;;;;;;;5.63;4.05;;;;;;;;;;5033836;28;20108;-79
2022/06/18 03:08:57;;;;;;;6.15;4.25;;;;;;;;;;5016094;28;20021;-79
2022/06/18 03:14:10;;;;;;;6.38;4.10;;;;;;;;;;5033903;28;20044;-79
2022/06/18 03:16:36;;;;;;;7.85;4.78;;;;;;;;;;5033789;28;20037;-79
2022/06/18 03:19:03;;;;;;;6.90;4.28;;;;;;;;;;5033540;28;20029;-79
2022/06/18 03:21:35;;;;;;;4.65;4.13;;;;;;;;;;5033565;28;20052;-78
2022/06/18 03:24:02;;;;;;;12.13;5.45;;;;;;;;;;5033529;28;20025;-78
2022/06/18 03:26:28;;;;;;;8.05;4.50;;;;;;;;;;5033396;28;20074;-79
2022/06/18 03:28:55;;;;;;;6.60;4.60;;;;;;;;;;5033485;28;20017;-79
2022/06/18 03:31:21;;;;;;;6.97;4.15;;;;;;;;;;5033347;28;20056;-79
2022/06/18 03:33:47;;;;;;;6.70;4.85;;;;;;;;;;5033541;28;20033;-79
2022/06/18 03:36:17;;;;;;;7.65;5.32;;;;;;;;;;5033474;28;20025;-77
2022/06/18 03:38:43;;;;;;;15.52;5.65;;;;;;;;;;5033286;28;20033;-79
2022/06/18 03:41:12;;;;;;;11.43;6.63;;;;;;;;;;5033410;28;20068;-78
2022/06/18 03:43:38;;;;;;;10.30;5.40;;;;;;;;;;5033087;28;20476;-79
2022/06/18 03:46:05;;;;;;;8.02;4.50;;;;;;;;;;5033270;28;20472;-79
2022/06/18 03:48:52;;;;;;;6.32;4.28;;;;;;;;;;5033394;28;20029;-79
2022/06/18 03:51:19;;;;;;;5.47;4.32;;;;;;;;;;5033169;28;20091;-79
2022/06/18 03:53:45;;;;;;;7.30;4.32;;;;;;;;;;5033178;28;20481;-79
2022/06/18 03:56:12;;;;;;;5.75;4.50;;;;;;;;;;5033092;28;20033;-79
2022/06/18 03:58:38;;;;;;;5.57;4.20;;;;;;;;;;5033006;28;20065;-79
2022/06/18 04:01:05;;;;;;;7.53;3.90;;;;;;;;;;5015352;28;20052;-79
2022/06/18 04:03:31;;;;;;;9.55;4.60;;;;;;;;;;5033007;28;20435;-75
2022/06/18 04:05:57;;;;;;;8.80;4.40;;;;;;;;;;5033094;28;20041;-79
2022/06/18 04:08:23;;;;;;;5.13;4.25;;;;;;;;;;5033103;28;20054;-79
2022/06/18 04:10:49;;;;;;;6.05;4.20;;;;;;;;;;5036340;28;20025;-79
2022/06/18 04:13:16;;;;;;;7.53;3.88;;;;;;;;;;5037199;28;20395;-79
2022/06/18 04:15:42;;;;;;;8.13;4.10;;;;;;;;;;5037120;28;20029;-79
2022/06/18 04:18:10;;;;;;;9.15;4.68;;;;;;;;;;5037152;28;20045;-79
2022/06/18 04:20:37;;;;;;;8.05;3.90;;;;;;;;;;5036988;28;20029;-77
2022/06/18 04:23:03;;;;;;;12.00;4.40;;;;;;;;;;5036969;28;20037;-79
2022/06/18 04:25:29;;;;;;;11.23;4.60;;;;;;;;;;5036960;28;20104;-79
2022/06/18 04:27:57;;;;;;;15.68;5.55;;;;;;;;;;5036725;28;20026;-79
2022/06/18 04:30:24;;;;;;;10.60;4.60;;;;;;;;;;5036651;28;20025;-79
2022/06/18 04:32:50;;;;;;;6.03;3.97;;;;;;;;;;5036727;28;20025;-79
2022/06/18 04:35:16;;;;;;;8.02;4.15;;;;;;;;;;5036830;28;20052;-75
2022/06/18 04:37:44;;;;;;;10.13;4.45;;;;;;;;;;5036567;28;20041;-79
2022/06/18 04:40:13;;;;;;;11.75;4.70;;;;;;;;;;5036801;28;20025;-79
2022/06/18 04:42:39;;;;;;;8.88;4.38;;;;;;;;;;5036478;28;20034;-79
2022/06/18 04:45:05;;;;;;;8.35;4.55;;;;;;;;;;5018567;28;20042;-69
2022/06/18 04:47:31;;;;;;;8.68;4.25;;;;;;;;;;5036638;28;20025;-79
2022/06/18 04:49:58;;;;;;;8.98;4.32;;;;;;;;;;5036363;28;20037;-79
2022/06/18 04:52:25;;;;;;;9.23;4.65;;;;;;;;;;5036324;28;20040;-79
2022/06/18 04:54:52;;;;;;;12.38;5.35;;;;;;;;;;5036540;28;20025;-70
2022/06/18 04:57:19;;;;;;;8.63;4.05;;;;;;;;;;5036246;28;20024;-79
2022/06/18 04:59:45;;;;;;;5.90;3.70;;;;;;;;;;5036305;28;20022;-78
2022/06/18 05:02:32;;;;;;;7.88;4.55;;;;;;;;;;5018212;28;20503;-78
2022/06/18 05:04:58;;;;;;;9.63;4.45;;;;;;;;;;5036040;28;20515;-78
2022/06/18 05:07:24;;;;;;;6.20;3.63;;;;;;;;;;5036092;28;20030;-78
2022/06/18 05:09:50;;;;;;;8.63;3.70;;;;;;;;;;5036038;28;20043;-78
2022/06/18 05:12:16;;;;;;;7.78;4.00;;;;;;;;;;5018017;28;20034;-78
2022/06/18 05:14:42;;;;;;;8.13;4.20;;;;;;;;;;5036167;28;20488;-78
2022/06/18 05:17:16;;;;;;;6.57;3.97;;;;;;;;;;5035781;28;20051;-78
2022/06/18 05:19:42;;;;;;;6.93;4.28;;;;;;;;;;5035760;28;20076;-78
2022/06/18 05:22:09;;;;;;;6.57;4.03;;;;;;;;;;5035871;28;20021;-78
2022/06/18 05:24:35;;;;;;;7.70;4.60;;;;;;;;;;5035842;28;20033;-69
2022/06/18 05:27:01;;;;;;;6.32;3.63;;;;;;;;;;5018046;28;20083;-80
2022/06/18 05:29:28;;;;;;;5.53;3.72;;;;;;;;;;5035725;28;20075;-79
2022/06/18 05:31:54;;;;;;;7.28;3.80;;;;;;;;;;5035632;28;20029;-78
2022/06/18 05:34:20;;;;;;;7.38;3.47;;;;;;;;;;5035633;28;20017;-77
2022/06/18 05:36:47;;;;;;;8.88;3.95;;;;;;;;;;5035442;28;20191;-78
2022/06/18 05:39:15;;;;;;;6.20;3.50;;;;;;;;;;5035588;28;20025;-78
2022/06/18 05:41:41;;;;;;;7.70;4.20;;;;;;;;;;5035440;28;20472;-78
2022/06/18 05:44:08;;;;;;;4.75;3.15;;;;;;;;;;5035272;28;20025;-77
2022/06/18 05:46:34;;;;;;;6.47;3.83;;;;;;;;;;5035379;28;20017;-78
2022/06/18 05:49:00;;;;;;;6.82;3.50;;;;;;;;;;5035341;28;20043;-79
2022/06/18 05:51:27;;;;;;;6.32;3.72;;;;;;;;;;5035535;28;20036;-78
2022/06/18 05:53:53;;;;;;;10.55;4.82;;;;;;;;;;5035278;28;20427;-79
2022/06/18 05:56:19;;;;;;;3.92;3.53;;;;;;;;;;5035245;28;20454;-79
2022/06/18 05:58:45;;;;;;;8.48;4.13;;;;;;;;;;5034960;28;20048;-79
2022/06/18 06:01:11;;;;;;;6.55;3.90;;;;;;;;;;5035288;28;20399;-79
2022/06/18 06:03:37;;;;;;;5.97;3.80;;;;;;;;;;5035145;28;20025;-79
2022/06/18 06:06:03;;;;;;;9.30;4.30;;;;;;;;;;5034956;28;20034;-79
2022/06/18 06:08:30;;;;;;;10.25;4.18;;;;;;;;;;5034899;28;20022;-69
2022/06/18 06:13:41;;;;;;;11.38;5.40;;;;;;;;;;5034874;28;20036;-77
2022/06/18 06:16:07;;;;;;;13.48;4.70;;;;;;;;;;5034808;28;20030;-71
2022/06/18 06:18:33;;;;;;;8.52;4.03;;;;;;;;;;5034604;28;20381;-71
2022/06/18 06:21:00;;;;;;;8.55;3.90;;;;;;;;;;5034802;28;20088;-77
2022/06/18 06:23:26;;;;;;;8.65;4.22;;;;;;;;;;5034666;28;20044;-70
2022/06/18 06:25:52;;;;;;;7.63;3.67;;;;;;;;;;5034584;28;20431;-69
2022/06/18 06:28:26;;;;;;;7.57;4.60;;;;;;;;;;5034361;28;20056;-71
2022/06/18 06:30:53;;;;;;;6.75;4.20;;;;;;;;;;5034613;28;20036;-70
2022/06/18 06:33:20;;;;;;;7.90;4.03;;;;;;;;;;5034138;28;20104;-70
2022/06/18 06:35:46;;;;;;;7.53;4.70;;;;;;;;;;5034283;28;20025;-70
2022/06/18 06:38:12;;;;;;;14.20;4.93;;;;;;;;;;5034387;28;20041;-69
2022/06/18 06:40:40;;;;;;;6.22;3.65;;;;;;;;;;5034328;28;20054;-69
2022/06/18 06:43:07;;;;;;;8.00;4.35;;;;;;;;;;5034412;28;20029;-69
2022/06/18 06:45:34;;;;;;;9.35;3.92;;;;;;;;;;5034216;28;20041;-70
2022/06/18 06:48:00;;;;;;;7.10;3.30;;;;;;;;;;5034035;28;20022;-70
2022/06/18 06:50:27;;;;;;;7.82;3.83;;;;;;;;;;5034100;28;20113;-69
2022/06/18 06:52:53;;;;;;;9.93;4.93;;;;;;;;;;5033895;28;20028;-70
2022/06/18 06:58:10;;;;;;;4.55;3.70;;;;;;;;;;5033830;28;20124;-69
2022/06/18 07:00:39;;;;;;;5.93;3.95;;;;;;;;;;5033801;28;20026;-70
2022/06/18 07:03:05;;;;;;;5.82;3.50;;;;;;;;;;5033678;28;20026;-70
2022/06/18 07:05:31;;;;;;;6.22;3.35;;;;;;;;;;5033829;28;20081;-70
2022/06/18 07:07:57;;;;;;;5.97;3.83;;;;;;;;;;5033711;28;20021;-69
2022/06/18 07:10:24;;;;;;;6.57;4.18;;;;;;;;;;5033757;28;20492;-69
2022/06/18 07:12:50;;;;;;;4.82;3.78;;;;;;;;;;5015881;28;20112;-71
2022/06/18 07:15:17;;;;;;;8.95;4.20;;;;;;;;;;5033471;28;20027;-70
2022/06/18 07:17:43;;;;;;;10.40;4.68;;;;;;;;;;5015430;28;20385;-72
2022/06/18 07:20:13;;;;;;;6.28;3.95;;;;;;;;;;5033474;28;20488;-70
2022/06/18 07:22:39;;;;;;;10.15;4.00;;;;;;;;;;5033390;28;20034;-70
2022/06/18 07:25:07;;;;;;;7.40;3.83;;;;;;;;;;5033403;28;20049;-69
2022/06/18 07:27:33;;;;;;;7.72;3.45;;;;;;;;;;5015528;28;20025;-70
2022/06/18 07:29:59;;;;;;;10.48;4.20;;;;;;;;;;5033224;28;20032;-70
2022/06/18 07:32:25;;;;;;;12.65;4.25;;;;;;;;;;5015150;28;20033;-69
2022/06/18 07:34:53;;;;;;;6.53;3.80;;;;;;;;;;5033435;28;20033;-69
2022/06/18 07:37:20;;;;;;;15.00;9.80;;;;;;;;;;5033251;28;20055;-72
2022/06/18 07:39:46;;;;;;;8.55;4.57;;;;;;;;;;5033444;28;20037;-69
2022/06/18 07:42:13;;;;;;;8.60;3.95;;;;;;;;;;5015754;28;20064;-69
2022/06/18 07:44:40;;;;;;;8.73;3.90;;;;;;;;;;5032045;28;20159;-69
2022/06/18 07:47:06;;;;;;;7.85;3.88;;;;;;;;;;5033145;28;20028;-70
2022/06/18 07:49:32;;;;;;;8.80;3.72;;;;;;;;;;5033279;28;20018;-70
2022/06/18 07:51:58;;;;;;;7.10;3.88;;;;;;;;;;5033177;28;20104;-70
2022/06/18 07:54:24;;;;;;;6.57;3.17;;;;;;;;;;5015369;28;20029;-70
2022/06/18 07:56:50;;;;;;;10.85;3.85;;;;;;;;;;5032879;28;20072;-69
2022/06/18 07:59:19;;;;;;;6.10;4.00;;;;;;;;;;5032798;28;20061;-69
2022/06/18 08:01:45;;;;;;;6.78;3.33;;;;;;;;;;5032865;28;20024;-70
2022/06/18 08:04:11;;;;;;;8.40;3.47;;;;;;;;;;5032837;28;20049;-69
2022/06/18 08:06:37;;;;;;;9.25;4.22;;;;;;;;;;5032879;28;20029;-70
2022/06/18 08:09:03;;;;;;;9.07;4.18;;;;;;;;;;5032917;28;20033;-70
2022/06/18 08:11:30;;;;;;;6.55;3.25;;;;;;;;;;5032842;28;20475;-69
2022/06/18 08:13:57;;;;;;;9.32;3.95;;;;;;;;;;5032891;28;20041;-70
2022/06/18 08:16:24;;;;;;;9.98;3.83;;;;;;;;;;5032944;28;20022;-69
2022/06/18 08:18:50;;;;;;;8.40;3.65;;;;;;;;;;5032727;28;20026;-70
2022/06/18 08:21:19;;;;;;;6.45;3.20;;;;;;;;;;5032785;28;20380;-71
2022/06/18 08:23:46;;;;;;;5.28;4.18;;;;;;;;;;5014977;28;20061;-79
2022/06/18 08:26:12;;;;;;;5.00;3.67;;;;;;;;;;5032923;28;20021;-78
2022/06/18 08:28:40;;;;;;;6.35;3.25;;;;;;;;;;5032657;28;20496;-79
2022/06/18 08:31:07;;;;;;;7.50;3.40;;;;;;;;;;5032739;28;20033;-80
2022/06/18 08:33:33;;;;;;;5.05;3.13;;;;;;;;;;5032641;28;20452;-80
2022/06/18 08:36:01;;;;;;;5.25;3.13;;;;;;;;;;5033024;28;20036;-71
2022/06/18 08:38:28;;;;;;;6.20;3.30;;;;;;;;;;5032704;28;20107;-80
2022/06/18 08:41:11;;;;;;;7.05;3.28;;;;;;;;;;5032798;28;20032;-79
2022/06/18 08:43:37;;;;;;;4.72;2.90;;;;;;;;;;5015020;28;20484;-78
2022/06/18 08:46:09;;;;;;;10.20;3.20;;;;;;;;;;5032756;28;20408;-79
2022/06/18 08:48:48;;;;;;;4.75;3.20;;;;;;;;;;5032866;28;20034;-80
2022/06/18 08:51:27;;;;;;;8.52;3.85;;;;;;;;;;5032633;28;20105;-78
2022/06/18 08:54:02;;;;;;;4.28;3.25;;;;;;;;;;5032539;28;20565;-76
2022/06/18 08:56:31;;;;;;;6.03;4.25;;;;;;;;;;5034941;28;20025;-80
2022/06/18 08:59:06;;;;;;;5.85;3.65;;;;;;;;;;5036078;28;20116;-80
2022/06/18 09:01:37;;;;;;;8.00;4.20;;;;;;;;;;5036149;28;20017;-81
2022/06/18 09:04:11;;;;;;;8.07;4.03;;;;;;;;;;5036146;28;20496;-71
2022/06/18 09:06:55;;;;;;;10.30;3.72;;;;;;;;;;5036174;28;20068;-78
2022/06/18 09:09:27;;;;;;;4.38;3.38;;;;;;;;;;5036174;28;20471;-78
2022/06/18 09:11:56;;;;;;;8.30;3.63;;;;;;;;;;5036010;28;20036;-80
2022/06/18 09:14:44;;;;;;;12.73;5.07;;;;;;;;;;5035799;28;20031;-78
2022/06/18 09:17:10;;;;;;;7.38;4.50;;;;;;;;;;5035850;28;20059;-79
2022/06/18 09:19:37;;;;;;;26.67;6.22;;;;;;;;;;5035901;28;20026;-78
2022/06/18 09:22:06;;;;;;;7.63;4.30;;;;;;;;;;5035876;28;20033;-69
2022/06/18 09:24:32;;;;;;;7.15;3.92;;;;;;;;;;5035830;28;20045;-79
2022/06/18 09:27:08;;;;;;;7.05;3.53;;;;;;;;;;5035555;28;20029;-79
2022/06/18 09:29:34;;;;;;;5.45;3.55;;;;;;;;;;5035561;28;20109;-77
2022/06/18 09:32:03;;;;;;;6.35;3.75;;;;;;;;;;5017891;28;20356;-78
2022/06/18 09:34:34;;;;;;;5.20;3.92;;;;;;;;;;5035672;28;20025;-79
2022/06/18 09:37:06;;;;;;;9.27;3.72;;;;;;;;;;5035531;28;20032;-78
2022/06/18 09:39:38;;;;;;;7.43;3.63;;;;;;;;;;5035677;28;20037;-78
2022/06/18 09:42:22;;;;;;;6.55;3.75;;;;;;;;;;5035460;28;20018;-79
2022/06/18 09:44:52;;;;;;;5.20;4.25;;;;;;;;;;5035294;28;20029;-75
2022/06/18 09:47:22;;;;;;;8.70;4.13;;;;;;;;;;5035417;28;20097;-80
2022/06/18 09:49:48;;;;;;;8.00;3.75;;;;;;;;;;5035310;28;20025;-79
2022/06/18 09:52:16;;;;;;;7.00;3.40;;;;;;;;;;5035604;28;20071;-78
2022/06/18 09:54:48;;;;;;;6.85;3.65;;;;;;;;;;5035074;28;20063;-79
2022/06/18 09:57:17;;;;;;;8.82;4.30;;;;;;;;;;5035079;28;20025;-79
2022/06/18 09:59:45;;;;;;;7.72;4.32;;;;;;;;;;5034998;28;20488;-79
2022/06/18 10:02:16;;;;;;;5.75;3.63;;;;;;;;;;5035008;28;20030;-80
2022/06/18 10:07:29;;;;;;;9.05;4.40;;;;;;;;;;5033849;28;20044;-80
2022/06/18 10:09:58;;;;;;;6.47;3.90;;;;;;;;;;5034862;28;20076;-79
2022/06/18 10:12:32;;;;;;;4.95;4.22;;;;;;;;;;5034932;28;20029;-79
2022/06/18 10:15:02;;;;;;;7.63;4.20;;;;;;;;;;5016899;28;20385;-79
2022/06/18 10:17:28;;;;;;;9.17;4.23;;;;;;;;;;5034650;28;20083;-80
2022/06/18 10:20:12;;;;;;;4.57;3.58;;;;;;;;;;5034692;28;20061;-80
2022/06/18 10:22:52;;;;;;;8.43;5.65;;;;;;;;;;5034708;28;20025;-80
2022/06/18 10:25:18;;;;;;;7.83;3.87;;;;;;;;;;5034760;28;20108;-80
2022/06/18 10:27:44;;;;;;;4.97;4.22;;;;;;;;;;5034567;28;20032;-79
2022/06/18 10:30:16;;;;;;;15.93;4.30;;;;;;;;;;5034626;28;20063;-79
2022/06/18 10:32:51;;;;;;;6.32;4.20;;;;;;;;;;5034500;28;20018;-77
2022/06/18 10:35:31;;;;;;;6.22;4.18;;;;;;;;;;5034401;28;20054;-73
2022/06/18 10:37:57;;;;;;;6.90;3.72;;;;;;;;;;5034281;28;20071;-71
2022/06/18 10:40:41;;;;;;;6.15;3.92;;;;;;;;;;5034304;28;20057;-79
2022/06/18 10:43:12;;;;;;;7.80;4.07;;;;;;;;;;5034120;28;20025;-77
2022/06/18 10:45:41;;;;;;;9.57;5.28;;;;;;;;;;5034071;28;20484;-71
2022/06/18 10:48:20;;;;;;;7.43;4.40;;;;;;;;;;5034360;28;20033;-81
2022/06/18 10:50:49;;;;;;;10.63;4.35;;;;;;;;;;5034169;28;20049;-70
2022/06/18 10:53:16;;;;;;;10.07;5.20;;;;;;;;;;5034033;28;20021;-80
2022/06/18 10:55:43;;;;;;;8.00;5.18;;;;;;;;;;5034510;28;20014;-80
2022/06/18 10:58:16;;;;;;;6.32;4.28;;;;;;;;;;5033978;28;20065;-70
2022/06/18 11:00:54;;;;;;;8.25;4.68;;;;;;;;;;5033918;28;20025;-80
2022/06/18 11:03:21;;;;;;;4.13;3.63;;;;;;;;;;5034085;28;20113;-70
2022/06/18 11:05:48;;;;;;;5.60;4.00;;;;;;;;;;5033727;28;20111;-80
2022/06/18 11:08:33;;;;;;;5.07;3.58;;;;;;;;;;5033828;28;20032;-80
2022/06/18 11:11:04;;;;;;;8.05;3.72;;;;;;;;;;5015809;28;20030;-77
2022/06/18 11:13:30;;;;;;;12.40;5.75;;;;;;;;;;5034330;28;20395;-80
2022/06/18 11:16:05;;;;;;;7.03;5.50;;;;;;;;;;5033866;28;20025;-80
2022/06/18 11:18:31;;;;;;;72.53;9.63;;;;;;;;;;5033631;28;20080;-80
2022/06/18 11:20:59;;;;;;;7.35;3.92;;;;;;;;;;5033584;28;20029;-81
2022/06/18 11:23:26;;;;;;;14.68;4.28;;;;;;;;;;5033961;28;20384;-81
2022/06/18 11:25:54;;;;;;;19.45;4.97;;;;;;;;;;5033730;28;20462;-80
2022/06/18 11:28:30;;;;;;;5.97;3.67;;;;;;;;;;5033488;28;20032;-79
2022/06/18 11:30:57;;;;;;;5.00;3.85;;;;;;;;;;5033363;28;20024;-80
2022/06/18 11:33:28;;;;;;;8.73;3.70;;;;;;;;;;5033545;28;20437;-78
2022/06/18 11:35:54;;;;;;;6.05;3.47;;;;;;;;;;5015345;28;20045;-80
2022/06/18 11:38:47;;;;;;;8.65;3.75;;;;;;;;;;5033373;28;20116;-80
2022/06/18 11:41:16;;;;;;;6.03;3.55;;;;;;;;;;5029981;28;20030;-80
2022/06/18 11:43:42;;;;;;;5.78;4.40;;;;;;;;;;5033313;28;20417;-80
2022/06/18 11:46:12;;;;;;;4.18;3.70;;;;;;;;;;5015264;28;20479;-77
2022/06/18 11:48:50;;;;;;;7.72;3.60;;;;;;;;;;5033437;28;20022;-80
2022/06/18 11:51:20;;;;;;;7.05;3.58;;;;;;;;;;5033223;28;20116;-79
2022/06/18 11:53:46;;;;;;;7.32;3.72;;;;;;;;;;5015582;28;20534;-80
2022/06/18 11:56:31;;;;;;;8.32;3.67;;;;;;;;;;5033178;28;20084;-80
2022/06/18 11:59:04;;;;;;;3.47;3.15;;;;;;;;;;5033075;28;20432;-79
2022/06/18 12:01:33;;;;;;;6.55;3.60;;;;;;;;;;5033267;28;20454;-80
2022/06/18 12:04:02;;;;;;;7.93;3.70;;;;;;;;;;5032982;28;20041;-80
2022/06/18 12:06:52;;;;;;;4.85;3.80;;;;;;;;;;5033066;28;20476;-80
2022/06/18 12:09:19;;;;;;;6.45;3.65;;;;;;;;;;5033071;28;20083;-80
2022/06/18 12:11:51;;;;;;;8.82;4.80;;;;;;;;;;5033045;28;20035;-80
2022/06/18 12:14:17;;;;;;;12.20;4.47;;;;;;;;;;5033031;28;20025;-81
2022/06/18 12:17:03;;;;;;;8.10;4.07;;;;;;;;;;5032816;28;20112;-81
2022/06/18 12:19:33;;;;;;;3.97;3.47;;;;;;;;;;5032857;28;20044;-80
2022/06/18 12:21:59;;;;;;;8.07;4.20;;;;;;;;;;5014674;28;20065;-80
2022/06/18 12:24:25;;;;;;;5.53;3.55;;;;;;;;;;5032974;28;20037;-76
2022/06/18 12:26:57;;;;;;;4.70;3.85;;;;;;;;;;5033063;28;20434;-79
2022/06/18 12:29:24;;;;;;;6.88;4.18;;;;;;;;;;5033014;28;20028;-80
2022/06/18 12:31:54;;;;;;;6.00;3.63;;;;;;;;;;5036030;28;20030;-79
2022/06/18 12:34:37;;;;;;;4.10;3.58;;;;;;;;;;5036866;28;20025;-80
2022/06/18 12:37:12;;;;;;;9.45;3.97;;;;;;;;;;5036737;28;20034;-80
2022/06/18 12:39:41;;;;;;;5.32;3.90;;;;;;;;;;5036737;28;20033;-80
2022/06/18 12:42:07;;;;;;;3.80;3.35;;;;;;;;;;5036835;28;20025;-81
2022/06/18 12:44:36;;;;;;;6.30;3.25;;;;;;;;;;5036599;28;20018;-80
2022/06/18 12:47:02;;;;;;;10.60;4.22;;;;;;;;;;5036426;28;20030;-81
2022/06/18 12:49:28;;;;;;;6.30;3.88;;;;;;;;;;5036517;28;20021;-81
2022/06/18 12:51:59;;;;;;;7.10;3.80;;;;;;;;;;5036644;28;20080;-80
2022/06/18 12:54:41;;;;;;;8.00;4.45;;;;;;;;;;5036481;28;20028;-81
2022/06/18 12:57:14;;;;;;;7.13;3.88;;;;;;;;;;5036388;28;20031;-81
2022/06/18 12:59:47;;;;;;;4.80;3.90;;;;;;;;;;5036107;28;20459;-70
2022/06/18 13:02:15;;;;;;;7.40;4.10;;;;;;;;;;5036193;28;20032;-79
2022/06/18 13:05:00;;;;;;;7.68;4.93;;;;;;;;;;5036210;28;20053;-80
2022/06/18 13:07:33;;;;;;;8.32;4.75;;;;;;;;;;5036212;28;20503;-81
2022/06/18 13:10:15;;;;;;;5.22;4.10;;;;;;;;;;5036053;28;20030;-81
2022/06/18 13:13:00;;;;;;;5.70;4.20;;;;;;;;;;5036147;28;20406;-81
2022/06/18 13:15:37;;;;;;;5.13;3.85;;;;;;;;;;5018173;28;20037;-81
2022/06/18 13:18:05;;;;;;;8.65;4.30;;;;;;;;;;5035960;28;20029;-81
2022/06/18 13:20:41;;;;;;;10.60;4.93;;;;;;;;;;5036058;28;20029;-74
2022/06/18 13:28:43;;;;;;;5.82;3.65;;;;;;;;;;5036182;28;20198;-80
2022/06/18 13:31:26;;;;;;;7.00;3.88;;;;;;;;;;5035728;28;20030;-81
2022/06/18 13:34:14;;;;;;;6.93;3.90;;;;;;;;;;5035592;28;20033;-72
2022/06/18 13:36:55;;;;;;;7.18;4.45;;;;;;;;;;5022639;28;20365;-80
2022/06/18 13:39:27;;;;;;;6.72;4.30;;;;;;;;;;5035439;28;20488;-81
2022/06/18 13:42:04;;;;;;;7.25;4.20;;;;;;;;;;5034228;28;20026;-80
2022/06/18 13:44:47;;;;;;;8.30;5.15;;;;;;;;;;5035422;28;20052;-77
2022/06/18 13:47:31;;;;;;;5.70;3.75;;;;;;;;;;5035309;28;20036;-80
2022/06/18 13:50:16;;;;;;;6.60;4.35;;;;;;;;;;5035408;28;20526;-81
2022/06/18 13:52:43;;;;;;;5.78;3.90;;;;;;;;;;5035761;28;20427;-78
2022/06/18 13:55:10;;;;;;;5.45;4.35;;;;;;;;;;5035530;28;20025;-81
2022/06/18 13:57:42;;;;;;;9.40;4.05;;;;;;;;;;5035078;28;20025;-80
2022/06/18 14:00:18;;;;;;;4.07;3.65;;;;;;;;;;5035227;28;20021;-80
2022/06/18 14:02:45;;;;;;;7.00;3.92;;;;;;;;;;5035163;28;20027;-81
2022/06/18 14:05:15;;;;;;;5.93;3.65;;;;;;;;;;5035097;28;20041;-70
2022/06/18 14:07:47;;;;;;;6.28;4.13;;;;;;;;;;5035113;28;20037;-80
2022/06/18 14:10:17;;;;;;;10.88;4.53;;;;;;;;;;5035052;28;20026;-81
2022/06/18 14:12:47;;;;;;;6.22;3.80;;;;;;;;;;5035185;28;20022;-75
2022/06/18 14:15:13;;;;;;;6.15;3.80;;;;;;;;;;5034870;28;20032;-81
2022/06/18 14:17:44;;;;;;;6.20;3.42;;;;;;;;;;5034852;28;20120;-81
2022/06/18 14:20:19;;;;;;;5.53;3.60;;;;;;;;;;5034884;28;20430;-78
2022/06/18 14:22:56;;;;;;;4.00;3.50;;;;;;;;;;5035018;28;20025;-80
2022/06/18 14:25:22;;;;;;;5.20;3.47;;;;;;;;;;5034918;28;20112;-80
2022/06/18 14:27:49;;;;;;;5.72;4.25;;;;;;;;;;5034737;28;20022;-77
2022/06/18 14:30:33;;;;;;;5.53;3.58;;;;;;;;;;5034580;28;20032;-81
2022/06/18 14:33:04;;;;;;;5.68;4.13;;;;;;;;;;5034732;28;20022;-81
2022/06/18 14:35:48;;;;;;;4.65;2.95;;;;;;;;;;5034450;28;20433;-81
2022/06/18 14:38:14;;;;;;;6.70;3.60;;;;;;;;;;5034399;28;20084;-81
2022/06/18 14:43:56;;;;;;;6.50;3.78;;;;;;;;;;5034776;28;20043;-80
2022/06/18 14:46:31;;;;;;;5.75;3.47;;;;;;;;;;5034325;28;20026;-80
2022/06/18 14:49:09;;;;;;;5.97;3.95;;;;;;;;;;5034207;28;20026;-81
2022/06/18 14:51:54;;;;;;;5.85;3.88;;;;;;;;;;5034321;28;20391;-81
2022/06/18 14:54:29;;;;;;;4.88;3.58;;;;;;;;;;5034063;28;20025;-81
2022/06/18 14:57:04;;;;;;;6.13;3.55;;;;;;;;;;5034230;28;20022;-79
2022/06/18 14:59:49;;;;;;;6.40;3.28;;;;;;;;;;5033927;28;20079;-81
2022/06/18 15:02:24;;;;;;;8.27;3.80;;;;;;;;;;5033940;28;20034;-76
2022/06/18 15:04:52;;;;;;;6.35;3.70;;;;;;;;;;5033735;28;20542;-79
2022/06/18 15:07:18;;;;;;;5.28;2.95;;;;;;;;;;5033904;28;20025;-79
2022/06/18 15:09:49;;;;;;;5.53;3.50;;;;;;;;;;5015701;28;20487;-79
2022/06/18 15:12:15;;;;;;;;;;;;;;;;;;5034309;28;20379;-78
2022/06/18 15:14:48;;;;;;;4.80;3.40;;;;;;;;;;5033863;28;20344;-79
2022/06/18 15:20:07;;;;;;;5.93;3.45;;;;;;;;;;5033818;28;20041;-76
2022/06/18 15:25:22;;;;;;;11.60;5.18;;;;;;;;;;5033759;28;20026;-81
2022/06/18 15:27:49;;;;;;;5.47;3.30;;;;;;;;;;5033707;28;20036;-80